Terminal Aerodrome Forecast
Issued by NWS Detroit/Pontiac, MI

Current Version | Previous Version | Text Only | Print | Product List | Glossary On
Versions: 1 2 3 4 5 6 7 8 9 10 11 12 13 14 15 16 17 18 19 20 21 22 23 24 25 26 27 28 29 30 31 32
614
FTUS43 KDTX 161120
TAFDTW
TAF
KDTW 161120Z 1612/1718 23010KT 5SM -SN SCT025 OVC040
      TEMPO 1612/1614 3SM -SN BR OVC018
     FM161400 25006KT P6SM OVC020
     FM161900 07005KT P6SM SCT007 BKN015 OVC050
     FM170000 08005KT P6SM OVC025=

USA.gov is the U.S. government's official web portal to all federal, state and local government web resources and services.